Time,TemperatureF,DewpointF,PressureIn,WindDirection,WindDirectionDegrees,WindSpeedMPH,WindSpeedGustMPH,Humidity,HourlyPrecipIn,Conditions,Clouds,dailyrainin,SoftwareType,DateUTC
2013-07-10 00:01:00,59.0,38.0,-100.00,West,263,6.0,9.0,46,0.00,,,-99.99,,2013-07-10 06:01:00,
2013-07-10 00:11:00,62.0,38.0,-100.00,SSW,193,4.0,6.0,40,0.00,,,-99.99,,2013-07-10 06:11:00,
2013-07-10 00:32:00,65.0,38.0,-100.00,SE,145,4.0,7.0,36,0.00,,,-99.99,,2013-07-10 06:32:00,
2013-07-10 00:42:00,63.0,38.0,-100.00,ESE,106,6.0,9.0,39,0.00,,,-99.99,,2013-07-10 06:42:00,
2013-07-10 01:01:00,64.0,39.0,-100.00,SE,131,7.0,11.0,40,0.00,,,-99.99,,2013-07-10 07:01:00,
2013-07-10 01:11:00,63.0,39.0,-100.00,SE,127,6.0,9.0,41,0.00,,,-99.99,,2013-07-10 07:11:00,
2013-07-10 01:33:00,63.0,40.0,-100.00,ESE,107,6.0,9.0,42,0.00,,,-99.99,,2013-07-10 07:33:00,
2013-07-10 02:01:00,61.0,44.0,-100.00,SE,136,17.0,22.0,54,0.00,,,-99.99,,2013-07-10 08:01:00,
2013-07-10 02:42:00,59.0,45.0,-100.00,SE,138,12.0,15.0,60,0.00,,,-99.99,,2013-07-10 08:42:00,
2013-07-10 03:12:00,60.0,44.0,-100.00,SSE,147,11.0,13.0,57,0.00,,,-99.99,,2013-07-10 09:12:00,
2013-07-10 03:42:00,61.0,43.0,-100.00,SE,145,12.0,14.0,51,0.00,,,-99.99,,2013-07-10 09:42:00,
2013-07-10 04:13:00,58.0,44.0,-100.00,SE,128,8.0,11.0,59,0.00,,,-99.99,,2013-07-10 10:13:00,
2013-07-10 04:50:00,-999.0,-99.9,-100.00,ESE,107,9.0,12.0,-999,-99.99,,,-99.99,,2013-07-10 10:50:00,
2013-07-10 05:00:00,-999.0,-99.9,-100.00,SE,130,12.0,17.0,-999,-99.99,,,-99.99,,2013-07-10 11:00:00,
2013-07-10 05:33:00,56.0,43.0,-100.00,SE,131,15.0,19.0,61,0.00,,,-99.99,,2013-07-10 11:33:00,
2013-07-10 05:43:00,57.0,42.0,-100.00,SE,137,16.0,21.0,57,0.00,,,-99.99,,2013-07-10 11:43:00,
2013-07-10 06:01:00,59.0,41.0,-100.00,SE,140,17.0,20.0,52,0.00,,,-99.99,,2013-07-10 12:01:00,
2013-07-10 06:43:00,61.0,40.0,-100.00,SE,134,15.0,19.0,47,0.00,,,-99.99,,2013-07-10 12:43:00,
2013-07-10 07:11:00,61.0,40.0,-100.00,ESE,102,6.0,9.0,46,0.00,,,-99.99,,2013-07-10 13:11:00,
2013-07-10 08:11:00,67.0,42.0,-100.00,West,264,4.0,6.0,40,0.00,,,-99.99,,2013-07-10 14:11:00,
2013-07-10 08:43:00,69.0,39.0,-100.00,North,0,3.0,7.0,33,0.00,,,-99.99,,2013-07-10 14:43:00,
2013-07-10 09:11:00,70.0,40.0,-100.00,NE,37,3.0,6.0,33,0.00,,,-99.99,,2013-07-10 15:11:00,
2013-07-10 09:22:00,72.0,38.0,-100.00,NW,313,3.0,6.0,30,0.00,,,-99.99,,2013-07-10 15:22:00,
2013-07-10 09:42:00,73.0,40.0,-100.00,WNW,285,3.0,6.0,30,0.00,,,-99.99,,2013-07-10 15:42:00,
2013-07-10 10:44:00,76.0,38.0,-100.00,North,350,7.0,12.0,26,0.00,,,-99.99,,2013-07-10 16:44:00,
2013-07-10 11:02:00,77.0,37.0,-100.00,NNW,342,7.0,13.0,24,0.00,,,-99.99,,2013-07-10 17:02:00,
2013-07-10 11:42:00,76.0,35.0,-100.00,NW,316,7.0,13.0,22,0.00,,,-99.99,,2013-07-10 17:42:00,
2013-07-10 12:44:00,79.0,34.0,-100.00,WNW,298,15.0,19.0,19,0.00,,,-99.99,,2013-07-10 18:44:00,
2013-07-10 12:52:00,79.0,36.0,-100.00,WNW,296,14.0,22.0,21,0.00,,,-99.99,,2013-07-10 18:52:00,
2013-07-10 13:01:00,80.0,33.0,-100.00,WNW,296,14.0,23.0,19,0.00,,,-99.99,,2013-07-10 19:01:00,
2013-07-10 13:11:00,79.0,33.0,-100.00,WNW,294,16.0,24.0,18,0.00,,,-99.99,,2013-07-10 19:11:00,
2013-07-10 13:21:00,81.0,32.0,-100.00,WNW,294,16.0,24.0,17,0.00,,,-99.99,,2013-07-10 19:21:00,
2013-07-10 13:42:00,83.0,30.0,-100.00,West,271,14.0,24.0,15,0.00,,,-99.99,,2013-07-10 19:42:00,
2013-07-10 14:22:00,82.0,29.0,-100.00,WNW,285,16.0,22.0,15,0.00,,,-99.99,,2013-07-10 20:22:00,
2013-07-10 14:32:00,81.0,28.0,-100.00,WNW,289,15.0,21.0,14,0.00,,,-99.99,,2013-07-10 20:32:00,
2013-07-10 14:43:00,81.0,28.0,-100.00,West,265,12.0,19.0,14,0.00,,,-99.99,,2013-07-10 20:43:00,
2013-07-10 15:01:00,82.0,29.0,-100.00,WSW,248,9.0,17.0,14,0.00,,,-99.99,,2013-07-10 21:01:00,
2013-07-10 15:11:00,82.0,29.0,-100.00,West,268,11.0,17.0,14,0.00,,,-99.99,,2013-07-10 21:11:00,
2013-07-10 15:22:00,81.0,28.0,-100.00,West,274,6.0,12.0,14,0.00,,,-99.99,,2013-07-10 21:22:00,
2013-07-10 15:41:00,81.0,30.0,-100.00,West,277,11.0,16.0,15,0.00,,,-99.99,,2013-07-10 21:41:00,
2013-07-10 16:01:00,81.0,29.0,-100.00,WNW,282,13.0,18.0,15,0.00,,,-99.99,,2013-07-10 22:01:00,
2013-07-10 16:11:00,82.0,29.0,-100.00,WNW,282,13.0,21.0,14,0.00,,,-99.99,,2013-07-10 22:11:00,
2013-07-10 16:42:00,81.0,29.0,-100.00,West,265,14.0,22.0,15,0.00,,,-99.99,,2013-07-10 22:42:00,
2013-07-10 17:01:00,82.0,28.0,-100.00,West,278,12.0,17.0,14,0.00,,,-99.99,,2013-07-10 23:01:00,
2013-07-10 17:11:00,83.0,29.0,-100.00,WNW,292,7.0,12.0,14,0.00,,,-99.99,,2013-07-10 23:11:00,
2013-07-10 17:32:00,81.0,27.0,-100.00,West,281,14.0,19.0,14,0.00,,,-99.99,,2013-07-10 23:32:00,
2013-07-10 17:43:00,81.0,27.0,-100.00,West,281,14.0,19.0,14,0.00,,,-99.99,,2013-07-10 23:43:00,
2013-07-10 18:01:00,81.0,27.0,-100.00,West,280,9.0,12.0,14,0.00,,,-99.99,,2013-07-11 00:01:00,
2013-07-10 19:01:00,80.0,39.0,-100.00,North,353,9.0,17.0,23,0.00,,,-99.99,,2013-07-11 01:01:00,
2013-07-10 19:11:00,80.0,39.0,-100.00,North,357,10.0,15.0,23,0.00,,,-99.99,,2013-07-11 01:11:00,
2013-07-10 19:43:00,78.0,40.0,-100.00,North,11,10.0,14.0,25,0.00,,,-99.99,,2013-07-11 01:43:00,
2013-07-10 20:11:00,77.0,39.0,-100.00,North,1,7.0,13.0,26,0.00,,,-99.99,,2013-07-11 02:11:00,
2013-07-10 20:43:00,75.0,43.0,-100.00,NNE,27,7.0,10.0,32,0.00,,,-99.99,,2013-07-11 02:43:00,
2013-07-10 21:42:00,70.0,45.0,-100.00,East,82,10.0,16.0,42,0.00,,,-99.99,,2013-07-11 03:42:00,
2013-07-10 22:12:00,68.0,46.0,-100.00,ESE,121,10.0,12.0,46,0.00,,,-99.99,,2013-07-11 04:12:00,
2013-07-10 22:42:00,66.0,49.0,-100.00,SE,130,9.0,12.0,54,0.00,,,-99.99,,2013-07-11 04:42:00,
2013-07-10 23:01:00,65.0,50.0,-100.00,ESE,123,11.0,14.0,60,0.00,,,-99.99,,2013-07-11 05:01:00,
2013-07-10 23:32:00,64.0,49.0,-100.00,ESE,123,14.0,19.0,58,0.00,,,-99.99,,2013-07-11 05:32:00,
2013-07-10 23:43:00,63.0,49.0,-100.00,ESE,117,12.0,16.0,60,0.00,,,-99.99,,2013-07-11 05:43:00,
2013-07-10 23:52:00,63.0,49.0,-100.00,SE,128,12.0,17.0,62,0.00,,,-99.99,,2013-07-11 05:52:00,